^^
Saratoga-Weather Station Historical Data
Daily Summary for January 15, 2020 Units:  Metric    English   Both
Daily Weekly Monthly Yearly Custom
  High: Low: Average:
Temperature: 10.5 °C 5.6 °C 7.8 °C
Dew Point: 9.9 °C 4.7 °C 7.3 °C
Humidity: 98% 92% 96%
Wind Speed: 7.9km/h 0km/h 0.9km/h
Wind Gust: 17.7km/h - -
Wind- - South
Pressure: 1014.9 hPa 1008.5 hPa -
Precipitation: 11.7 mm    
Historical Graphs
 
 
Tabular Data for January 15, 2020
Time Temperature Dew Point Pressure Wind Wind Speed Wind Gust Humidity Rainfall Rate (Hourly) solar
00:00 5.9 °C 4.7 °C 1009.5 hPa Calm     92% 0.0 mm 0 W/m2
00:05 5.9 °C 4.7 °C 1009.5 hPa Calm     92% 0.0 mm 0 W/m2
00:10 5.9 °C 4.7 °C 1009.5 hPa Calm     92% 0.2 mm 0 W/m2
00:15 5.9 °C 4.7 °C 1009.5 hPa Calm     92% 0.2 mm 0 W/m2
00:20 6.1 °C 4.9 °C 1009.5 hPa Calm     92% 0.5 mm 0 W/m2
00:25 6.1 °C 5.1 °C 1009.5 hPa Calm     93% 0.5 mm 0 W/m2
00:30 6.1 °C 5.1 °C 1009.5 hPa Calm     93% 0.5 mm 0 W/m2
00:35 6 °C 5 °C 1009.5 hPa Calm     93% 0.5 mm 0 W/m2
00:40 6 °C 5.1 °C 1009.5 hPa Calm     94% 0.8 mm 0 W/m2
00:45 5.9 °C 5 °C 1009.5 hPa Calm     94% 0.8 mm 0 W/m2
00:50 5.9 °C 5 °C 1009.5 hPa Calm     94% 1.0 mm 0 W/m2
00:55 5.9 °C 5 °C 1009.5 hPa South 1.4 km/h 1.6 km/h 94% 1.3 mm 0 W/m2
01:01 5.9 °C 5 °C 1009.5 hPa Calm     94% 1.3 mm 0 W/m2
01:06 5.9 °C 5 °C 1009.5 hPa South 1.4 km/h 1.6 km/h 94% 1.5 mm 0 W/m2
01:11 5.9 °C 5.2 °C 1009.5 hPa Calm   1.6 km/h 95% 1.5 mm 0 W/m2
01:16 5.9 °C 5.2 °C 1009.5 hPa Calm     95% 1.5 mm 0 W/m2
01:21 5.9 °C 5.2 °C 1009.5 hPa Calm     95% 1.5 mm 0 W/m2
01:26 5.8 °C 5.1 °C 1009.5 hPa Calm     95% 1.5 mm 0 W/m2
01:31 5.8 °C 5.1 °C 1009.5 hPa Calm     95% 1.5 mm 0 W/m2
01:36 5.8 °C 5.1 °C 1009.5 hPa Calm     95% 1.5 mm 0 W/m2
01:41 5.8 °C 5.1 °C 1009.5 hPa Calm     95% 1.5 mm 0 W/m2
01:46 5.8 °C 5.1 °C 1009.5 hPa Calm     95% 1.5 mm 0 W/m2
01:51 5.8 °C 5.1 °C 1009.5 hPa Calm     95% 1.5 mm 0 W/m2
01:56 5.8 °C 5.1 °C 1009.5 hPa Calm     95% 1.5 mm 0 W/m2
02:01 5.9 °C 5.3 °C 1009.5 hPa Calm     96% 1.5 mm 0 W/m2
02:06 5.9 °C 5.2 °C 1009.5 hPa Calm     95% 1.5 mm 0 W/m2
02:11 5.9 °C 5.3 °C 1009.5 hPa Calm     96% 1.3 mm 0 W/m2
02:16 5.9 °C 5.3 °C 1009.5 hPa Calm     96% 1.3 mm 0 W/m2
02:21 5.9 °C 5.3 °C 1009.1 hPa Calm     96% 1.3 mm 0 W/m2
02:26 5.9 °C 5.3 °C 1009.5 hPa Calm     96% 1.3 mm 0 W/m2
02:31 5.9 °C 5.3 °C 1009.1 hPa Calm     96% 1.3 mm 0 W/m2
02:36 5.9 °C 5.3 °C 1009.1 hPa Calm     96% 1.5 mm 0 W/m2
02:41 6 °C 5.4 °C 1009.1 hPa Calm     96% 1.3 mm 0 W/m2
02:46 6 °C 5.4 °C 1009.1 hPa Calm     96% 1.3 mm 0 W/m2
02:51 6 °C 5.4 °C 1009.1 hPa Calm     96% 1.0 mm 0 W/m2
02:56 6.1 °C 5.5 °C 1009.1 hPa Calm     96% 1.3 mm 0 W/m2
03:01 6.1 °C 5.5 °C 1009.1 hPa Calm     96% 1.3 mm 0 W/m2
03:06 6.1 °C 5.5 °C 1009.1 hPa Calm     96% 1.0 mm 0 W/m2
03:11 6.2 °C 5.6 °C 1009.1 hPa Calm     96% 1.0 mm 0 W/m2
03:16 6.2 °C 5.6 °C 1008.8 hPa Calm     96% 0.8 mm 0 W/m2
03:21 6.2 °C 5.6 °C 1009.1 hPa Calm     96% 1.0 mm 0 W/m2
03:26 6.3 °C 5.7 °C 1009.1 hPa Calm     96% 0.8 mm 0 W/m2
03:31 6.3 °C 5.7 °C 1009.1 hPa Calm     96% 0.5 mm 0 W/m2
03:36 6.3 °C 5.7 °C 1009.1 hPa Calm     96% 0.5 mm 0 W/m2
03:41 6.4 °C 5.8 °C 1009.1 hPa Calm     96% 0.5 mm 0 W/m2
03:46 6.4 °C 6 °C 1009.1 hPa Calm     97% 0.8 mm 0 W/m2
03:51 6.4 °C 6 °C 1008.8 hPa Calm     97% 0.8 mm 0 W/m2
03:56 6.5 °C 5.9 °C 1008.8 hPa Calm     96% 0.5 mm 0 W/m2
04:01 6.5 °C 5.9 °C 1008.8 hPa Calm     96% 0.5 mm 0 W/m2
04:06 6.6 °C 6 °C 1008.8 hPa Calm     96% 0.8 mm 0 W/m2
04:11 6.6 °C 6.2 °C 1008.8 hPa Calm     97% 0.8 mm 0 W/m2
04:16 6.7 °C 6.3 °C 1008.8 hPa Calm     97% 0.8 mm 0 W/m2
04:21 6.7 °C 6.3 °C 1009.1 hPa Calm     97% 0.5 mm 0 W/m2
04:26 6.8 °C 6.4 °C 1009.1 hPa Calm   3.2 km/h 97% 0.5 mm 0 W/m2
04:31 6.8 °C 6.4 °C 1009.1 hPa Calm     97% 0.8 mm 0 W/m2
04:36 6.8 °C 6.4 °C 1008.8 hPa Calm   3.2 km/h 97% 0.5 mm 0 W/m2
04:41 6.9 °C 6.5 °C 1008.8 hPa Calm     97% 0.5 mm 0 W/m2
04:46 6.9 °C 6.5 °C 1008.8 hPa Calm     97% 0.5 mm 0 W/m2
04:51 6.9 °C 6.5 °C 1008.8 hPa Calm     97% 0.5 mm 0 W/m2
04:56 6.9 °C 6.5 °C 1008.8 hPa Calm     97% 0.8 mm 0 W/m2
05:01 6.9 °C 6.5 °C 1008.8 hPa Calm     97% 0.8 mm 0 W/m2
05:06 6.9 °C 6.5 °C 1008.5 hPa Calm     97% 0.5 mm 0 W/m2
05:11 6.9 °C 6.5 °C 1008.5 hPa Calm     97% 0.5 mm 0 W/m2
05:16 6.9 °C 6.5 °C 1008.5 hPa Calm     97% 0.8 mm 0 W/m2
05:21 6.9 °C 6.5 °C 1008.5 hPa East 3.2 km/h 3.2 km/h 97% 0.8 mm 0 W/m2
05:26 6.9 °C 6.5 °C 1008.5 hPa East 1.4 km/h 1.6 km/h 97% 0.8 mm 0 W/m2
05:31 7 °C 6.6 °C 1008.5 hPa Calm     97% 0.5 mm 0 W/m2
05:36 7.1 °C 6.7 °C 1008.5 hPa Calm     97% 0.5 mm 0 W/m2
05:41 7.1 °C 6.7 °C 1008.5 hPa Calm     97% 0.8 mm 0 W/m2
05:46 7.1 °C 6.7 °C 1008.5 hPa Calm     97% 0.5 mm 0 W/m2
05:51 7.1 °C 6.7 °C 1008.5 hPa Calm     97% 0.5 mm 0 W/m2
05:56 7.1 °C 6.7 °C 1008.5 hPa Calm     97% 0.5 mm 0 W/m2
06:01 7.1 °C 6.7 °C 1008.5 hPa East 1.4 km/h 1.6 km/h 97% 0.5 mm 0 W/m2
06:06 7.2 °C 6.8 °C 1008.5 hPa East 1.4 km/h 1.6 km/h 97% 0.5 mm 0 W/m2
06:11 7.2 °C 6.8 °C 1008.5 hPa Calm   1.6 km/h 97% 0.5 mm 0 W/m2
06:16 7.2 °C 6.8 °C 1008.5 hPa Calm   1.6 km/h 97% 0.2 mm 0 W/m2
06:21 7.2 °C 6.8 °C 1008.5 hPa Calm     97% 0.2 mm 0 W/m2
06:26 7.2 °C 6.8 °C 1008.5 hPa Calm     97% 0.2 mm 0 W/m2
06:31 7.2 °C 6.8 °C 1008.5 hPa Calm   1.6 km/h 97% 0.2 mm 0 W/m2
06:36 7.2 °C 6.8 °C 1008.5 hPa Calm     97% 0.2 mm 0 W/m2
06:41 7.3 °C 6.9 °C 1008.5 hPa Calm     97% 0.0 mm 0 W/m2
06:46 7.3 °C 6.9 °C 1008.5 hPa Calm   3.2 km/h 97% 0.0 mm 0 W/m2
06:51 7.3 °C 6.9 °C 1008.5 hPa Calm     97% 0.0 mm 0 W/m2
06:56 7.3 °C 6.9 °C 1008.5 hPa Calm   1.6 km/h 97% 0.0 mm 0 W/m2
07:01 7.4 °C 7 °C 1008.5 hPa ENE 1.4 km/h 3.2 km/h 97% 0.0 mm 0 W/m2
07:06 7.4 °C 7 °C 1008.5 hPa Calm     97% 0.0 mm 0 W/m2
07:11 7.4 °C 7 °C 1008.5 hPa ENE 1.4 km/h 3.2 km/h 97% 0.0 mm 0 W/m2
07:16 7.4 °C 7 °C 1008.5 hPa Calm   3.2 km/h 97% 0.0 mm 0 W/m2
07:21 7.4 °C 7 °C 1008.5 hPa ENE 1.4 km/h 4.8 km/h 97% 0.0 mm 0 W/m2
07:26 7.4 °C 7 °C 1008.5 hPa Calm     97% 0.0 mm 0 W/m2
07:31 7.4 °C 7 °C 1008.5 hPa Calm   3.2 km/h 97% 0.0 mm 0 W/m2
07:36 7.4 °C 7 °C 1008.5 hPa Calm     97% 0.0 mm 0 W/m2
07:41 7.4 °C 7 °C 1008.5 hPa Calm     97% 0.0 mm 0 W/m2
07:46 7.4 °C 7 °C 1008.5 hPa Calm     97% 0.2 mm 0 W/m2
07:51 7.4 °C 7 °C 1008.5 hPa Calm     97% 0.2 mm 0 W/m2
07:56 7.4 °C 7 °C 1008.8 hPa Calm     97% 0.2 mm 0 W/m2
08:01 7.3 °C 6.9 °C 1008.8 hPa Calm     97% 0.5 mm 0 W/m2
08:06 7.3 °C 6.9 °C 1008.8 hPa Calm     97% 0.5 mm 0 W/m2
08:11 7.3 °C 6.9 °C 1008.8 hPa Calm     97% 0.5 mm 0 W/m2
08:16 7.3 °C 6.9 °C 1008.8 hPa Calm     97% 0.5 mm 0 W/m2
08:22 7.4 °C 7 °C 1008.8 hPa Calm     97% 0.5 mm 0 W/m2
08:27 7.3 °C 6.9 °C 1008.8 hPa Calm     97% 0.5 mm 0 W/m2
08:32 7.3 °C 6.9 °C 1008.8 hPa Calm     97% 0.5 mm 0 W/m2
08:37 7.3 °C 6.9 °C 1008.8 hPa Calm     97% 0.5 mm 0 W/m2
08:42 7.4 °C 7 °C 1008.8 hPa Calm     97% 0.8 mm 0 W/m2
08:47 7.4 °C 7 °C 1008.8 hPa Calm     97% 0.8 mm 0 W/m2
08:52 7.4 °C 7 °C 1008.8 hPa Calm     97% 0.8 mm 7 W/m2
08:57 7.4 °C 7 °C 1008.8 hPa Calm     97% 1.0 mm 11 W/m2
09:02 7.4 °C 7 °C 1008.8 hPa Calm     97% 0.8 mm 16 W/m2
09:07 7.4 °C 7 °C 1008.8 hPa Calm     97% 0.8 mm 23 W/m2
09:12 7.5 °C 7.1 °C 1008.8 hPa Calm     97% 0.5 mm 25 W/m2
09:17 7.6 °C 7.2 °C 1009.1 hPa Calm     97% 0.5 mm 21 W/m2
09:22 7.6 °C 7.3 °C 1009.1 hPa Calm     98% 0.8 mm 16 W/m2
09:27 7.7 °C 7.4 °C 1009.1 hPa Calm     98% 0.8 mm 12 W/m2
09:32 7.8 °C 7.4 °C 1009.1 hPa Calm     97% 0.8 mm 11 W/m2
09:37 7.9 °C 7.5 °C 1009.1 hPa Calm     97% 0.8 mm 9 W/m2
09:42 7.9 °C 7.6 °C 1009.1 hPa Calm   1.6 km/h 98% 0.5 mm 11 W/m2
09:47 8.1 °C 7.8 °C 1009.1 hPa East 1.4 km/h 3.2 km/h 98% 0.5 mm 7 W/m2
09:52 8.2 °C 7.9 °C 1009.1 hPa East 3.2 km/h 3.2 km/h 98% 0.5 mm 12 W/m2
09:57 8.3 °C 8 °C 1009.1 hPa East 1.4 km/h 3.2 km/h 98% 0.5 mm 16 W/m2
10:02 8.3 °C 8 °C 1009.5 hPa Calm   4.8 km/h 98% 0.5 mm 12 W/m2
10:07 8.4 °C 8.1 °C 1009.5 hPa ENE 3.2 km/h 6.4 km/h 98% 0.5 mm 12 W/m2
10:12 8.4 °C 8.1 °C 1009.5 hPa ESE 3.2 km/h 4.8 km/h 98% 0.8 mm 11 W/m2
10:17 8.4 °C 8.1 °C 1009.5 hPa ENE 1.4 km/h 3.2 km/h 98% 0.8 mm 19 W/m2
10:22 8.4 °C 8.1 °C 1009.5 hPa East 1.4 km/h 4.8 km/h 98% 0.8 mm 25 W/m2
10:27 8.5 °C 8.2 °C 1009.8 hPa ENE 3.2 km/h 4.8 km/h 98% 0.8 mm 30 W/m2
10:32 8.5 °C 8.1 °C 1009.5 hPa East 3.2 km/h 3.2 km/h 97% 1.0 mm 28 W/m2
10:42 8.6 °C 8.3 °C 1009.8 hPa ENE 1.4 km/h 4.8 km/h 98% 1.3 mm 25 W/m2
10:47 8.6 °C 8.3 °C 1009.8 hPa NE 1.4 km/h 3.2 km/h 98% 1.5 mm 23 W/m2
10:52 8.7 °C 8.4 °C 1009.8 hPa East 4.7 km/h 6.4 km/h 98% 1.5 mm 26 W/m2
10:57 8.7 °C 8.4 °C 1009.8 hPa East 3.2 km/h 4.8 km/h 98% 1.5 mm 39 W/m2
11:02 8.8 °C 8.5 °C 1009.8 hPa East 1.4 km/h 6.4 km/h 98% 1.5 mm 40 W/m2
11:07 8.8 °C 8.5 °C 1010.2 hPa ESE 1.4 km/h 3.2 km/h 98% 1.5 mm 33 W/m2
11:12 8.8 °C 8.5 °C 1010.2 hPa NNE 1.4 km/h 4.8 km/h 98% 1.5 mm 30 W/m2
11:17 8.9 °C 8.6 °C 1010.2 hPa NE 1.4 km/h 4.8 km/h 98% 1.5 mm 39 W/m2
11:22 8.9 °C 8.6 °C 1010.2 hPa ENE 3.2 km/h 4.8 km/h 98% 1.5 mm 30 W/m2
11:27 9 °C 8.7 °C 1010.2 hPa NE 3.2 km/h 4.8 km/h 98% 1.5 mm 35 W/m2
11:32 9.1 °C 8.8 °C 1010.2 hPa Calm   4.8 km/h 98% 1.5 mm 37 W/m2
11:37 9.2 °C 8.9 °C 1010.2 hPa East 3.2 km/h 6.4 km/h 98% 1.3 mm 33 W/m2
11:42 9.2 °C 8.9 °C 1010.2 hPa Calm   3.2 km/h 98% 1.5 mm 32 W/m2
11:47 9.3 °C 9 °C 1010.2 hPa East 1.4 km/h 6.4 km/h 98% 1.5 mm 30 W/m2
11:52 9.4 °C 9.1 °C 1010.2 hPa NNE 1.4 km/h 1.6 km/h 98% 1.3 mm 33 W/m2
11:57 9.5 °C 9.2 °C 1010.2 hPa Calm   1.6 km/h 98% 1.5 mm 39 W/m2
12:02 9.6 °C 9.3 °C 1010.2 hPa NNE 3.2 km/h 4.8 km/h 98% 1.5 mm 56 W/m2
12:07 9.7 °C 9.4 °C 1010.2 hPa Calm   1.6 km/h 98% 1.5 mm 42 W/m2
12:12 9.8 °C 9.5 °C 1010.2 hPa NE 1.4 km/h 4.8 km/h 98% 1.3 mm 40 W/m2
12:17 9.8 °C 9.5 °C 1010.2 hPa East 1.4 km/h 4.8 km/h 98% 1.3 mm 39 W/m2
12:22 9.9 °C 9.6 °C 1010.2 hPa NNW 1.4 km/h 3.2 km/h 98% 1.3 mm 35 W/m2
12:27 9.9 °C 9.6 °C 1010.2 hPa West 3.2 km/h 6.4 km/h 98% 1.0 mm 44 W/m2
12:32 10 °C 9.7 °C 1010.2 hPa NNW 6.4 km/h 6.4 km/h 98% 1.0 mm 56 W/m2
12:37 10.1 °C 9.8 °C 1010.2 hPa North 3.2 km/h 3.2 km/h 98% 1.0 mm 35 W/m2
12:42 10.1 °C 9.8 °C 1010.2 hPa Calm   1.6 km/h 98% 1.0 mm 28 W/m2
12:47 10.1 °C 9.8 °C 1010.2 hPa North 1.4 km/h 3.2 km/h 98% 0.8 mm 21 W/m2
12:52 10.1 °C 9.8 °C 1010.2 hPa Calm   1.6 km/h 98% 1.0 mm 18 W/m2
12:57 10.2 °C 9.9 °C 1010.2 hPa WNW 3.2 km/h 9.7 km/h 98% 0.8 mm 19 W/m2
13:02 10.2 °C 9.7 °C 1010.2 hPa Calm   3.2 km/h 97% 0.5 mm 25 W/m2
13:07 10.2 °C 9.9 °C 1010.2 hPa NNE 1.4 km/h 6.4 km/h 98% 0.5 mm 11 W/m2
13:12 10.2 °C 9.7 °C 1010.2 hPa North 1.4 km/h 3.2 km/h 97% 0.5 mm 21 W/m2
13:17 10.2 °C 9.7 °C 1010.2 hPa North 1.4 km/h 6.4 km/h 97% 0.5 mm 25 W/m2
13:22 10.3 °C 9.8 °C 1010.2 hPa ENE 1.4 km/h 4.8 km/h 97% 0.5 mm 35 W/m2
13:27 10.3 °C 9.8 °C 1010.2 hPa Calm   3.2 km/h 97% 0.5 mm 28 W/m2
13:32 10.3 °C 9.8 °C 1010.2 hPa East 1.4 km/h 4.8 km/h 97% 0.5 mm 23 W/m2
13:37 10.3 °C 9.8 °C 1010.2 hPa NW 1.4 km/h 3.2 km/h 97% 0.5 mm 39 W/m2
13:42 10.4 °C 9.9 °C 1010.2 hPa North 4.7 km/h 8 km/h 97% 0.2 mm 32 W/m2
13:47 10.4 °C 9.9 °C 1010.2 hPa Calm   4.8 km/h 97% 0.2 mm 44 W/m2
13:52 10.4 °C 9.9 °C 1010.2 hPa NNW 3.2 km/h 9.7 km/h 97% 0.0 mm 53 W/m2
13:57 10.4 °C 9.8 °C 1010.5 hPa NNE 4.7 km/h 4.8 km/h 96% 0.0 mm 69 W/m2
14:02 10.5 °C 9.9 °C 1010.5 hPa North 1.4 km/h 4.8 km/h 96% 0.0 mm 74 W/m2
14:07 10.4 °C 9.8 °C 1010.5 hPa ENE 6.4 km/h 9.7 km/h 96% 0.0 mm 49 W/m2
14:12 10.4 °C 9.8 °C 1010.5 hPa WNW 4.7 km/h 9.7 km/h 96% 0.0 mm 69 W/m2
14:17 10.5 °C 9.9 °C 1010.5 hPa NNW 6.4 km/h 8 km/h 96% 0.2 mm 90 W/m2
14:22 10.5 °C 9.9 °C 1010.8 hPa West 1.4 km/h 4.8 km/h 96% 0.2 mm 32 W/m2
14:27 10.5 °C 9.9 °C 1010.8 hPa NE 1.4 km/h 4.8 km/h 96% 0.2 mm 33 W/m2
14:32 10.4 °C 9.8 °C 1010.8 hPa West 4.7 km/h 17.7 km/h 96% 0.2 mm 42 W/m2
14:37 10.4 °C 9.8 °C 1010.8 hPa WNW 3.2 km/h 4.8 km/h 96% 0.2 mm 21 W/m2
14:42 10.4 °C 9.8 °C 1010.8 hPa Calm   9.7 km/h 96% 0.2 mm 16 W/m2
14:47 10.4 °C 9.8 °C 1011.2 hPa West 3.2 km/h 6.4 km/h 96% 0.5 mm 12 W/m2
14:52 10.4 °C 9.8 °C 1010.8 hPa WNW 6.4 km/h 6.4 km/h 96% 0.5 mm 30 W/m2
14:58 10.4 °C 9.8 °C 1011.2 hPa WSW 1.4 km/h 3.2 km/h 96% 0.5 mm 37 W/m2
15:03 10.4 °C 9.8 °C 1011.2 hPa West 4.7 km/h 6.4 km/h 96% 0.5 mm 42 W/m2
15:08 10.4 °C 9.6 °C 1011.2 hPa WNW 4.7 km/h 6.4 km/h 95% 0.5 mm 46 W/m2
15:13 10.3 °C 9.5 °C 1011.5 hPa Calm   6.4 km/h 95% 0.5 mm 37 W/m2
15:18 10.3 °C 9.5 °C 1011.5 hPa WNW 4.7 km/h 6.4 km/h 95% 0.2 mm 30 W/m2
15:23 10.3 °C 9.5 °C 1011.5 hPa West 4.7 km/h 11.3 km/h 95% 0.2 mm 26 W/m2
15:28 10.3 °C 9.5 °C 1011.9 hPa WSW 1.4 km/h 4.8 km/h 95% 0.2 mm 28 W/m2
15:33 10.3 °C 9.5 °C 1011.9 hPa WNW 7.9 km/h 14.5 km/h 95% 0.2 mm 23 W/m2
15:38 10.3 °C 9.5 °C 1011.9 hPa WNW 6.4 km/h 11.3 km/h 95% 0.2 mm 26 W/m2
15:43 10.2 °C 9.4 °C 1011.9 hPa West 6.4 km/h 12.9 km/h 95% 0.2 mm 26 W/m2
15:48 10.2 °C 9.4 °C 1012.2 hPa West 3.2 km/h 6.4 km/h 95% 0.0 mm 18 W/m2
15:53 10.2 °C 9.4 °C 1012.2 hPa WSW 1.4 km/h 8 km/h 95% 0.0 mm 16 W/m2
15:58 10.2 °C 9.4 °C 1012.2 hPa WNW 6.4 km/h 9.7 km/h 95% 0.0 mm 26 W/m2
16:03 10.2 °C 9.4 °C 1012.2 hPa NW 6.4 km/h 6.4 km/h 95% 0.0 mm 33 W/m2
16:08 10.2 °C 9.4 °C 1012.5 hPa WNW 3.2 km/h 4.8 km/h 95% 0.0 mm 26 W/m2
16:13 10.2 °C 9.4 °C 1012.5 hPa West 6.4 km/h 6.4 km/h 95% 0.0 mm 26 W/m2
16:18 10.2 °C 9.3 °C 1012.5 hPa SSW 1.4 km/h 6.4 km/h 94% 0.0 mm 14 W/m2
16:23 10.1 °C 9.2 °C 1012.9 hPa SW 1.4 km/h 9.7 km/h 94% 0.0 mm 11 W/m2
16:28 10.1 °C 9.3 °C 1012.9 hPa WSW 4.7 km/h 6.4 km/h 95% 0.0 mm 7 W/m2
16:33 10.1 °C 9.3 °C 1012.9 hPa WSW 3.2 km/h 4.8 km/h 95% 0.0 mm 0 W/m2
16:38 10 °C 9.2 °C 1012.9 hPa WNW 4.7 km/h 6.4 km/h 95% 0.0 mm 0 W/m2
16:43 10 °C 9.2 °C 1012.9 hPa Calm   3.2 km/h 95% 0.0 mm 0 W/m2
16:48 9.9 °C 9.1 °C 1012.9 hPa Calm     95% 0.0 mm 0 W/m2
16:53 9.9 °C 9.1 °C 1012.9 hPa Calm   1.6 km/h 95% 0.0 mm 0 W/m2
16:58 9.9 °C 9.1 °C 1013.2 hPa Calm     95% 0.0 mm 0 W/m2
17:03 9.8 °C 9 °C 1013.2 hPa Calm     95% 0.0 mm 0 W/m2
17:08 9.8 °C 9 °C 1013.2 hPa Calm   3.2 km/h 95% 0.2 mm 0 W/m2
17:13 9.7 °C 8.9 °C 1013.2 hPa Calm   1.6 km/h 95% 0.2 mm 0 W/m2
17:18 9.7 °C 8.9 °C 1013.2 hPa West 1.4 km/h 3.2 km/h 95% 0.5 mm 0 W/m2
17:23 9.7 °C 8.9 °C 1013.2 hPa West 1.4 km/h 1.6 km/h 95% 0.5 mm 0 W/m2
17:28 9.6 °C 8.8 °C 1013.2 hPa Calm     95% 0.5 mm 0 W/m2
17:33 9.6 °C 8.8 °C 1013.2 hPa West 1.4 km/h 4.8 km/h 95% 0.5 mm 0 W/m2
17:38 9.5 °C 8.9 °C 1013.2 hPa WNW 4.7 km/h 6.4 km/h 96% 0.5 mm 0 W/m2
17:43 9.5 °C 8.9 °C 1013.5 hPa WNW 1.4 km/h 4.8 km/h 96% 0.5 mm 0 W/m2
17:48 9.4 °C 8.8 °C 1013.5 hPa WSW 1.4 km/h 3.2 km/h 96% 0.5 mm 0 W/m2
17:53 9.4 °C 8.6 °C 1013.5 hPa Calm   1.6 km/h 95% 0.5 mm 0 W/m2
17:58 9.3 °C 8.5 °C 1013.5 hPa West 1.4 km/h 3.2 km/h 95% 0.5 mm 0 W/m2
18:03 9.3 °C 8.5 °C 1013.5 hPa Calm     95% 0.5 mm 0 W/m2
18:08 9.2 °C 8.4 °C 1013.5 hPa Calm     95% 0.2 mm 0 W/m2
18:13 9.1 °C 8.3 °C 1013.5 hPa Calm     95% 0.2 mm 0 W/m2
18:18 9.1 °C 8.5 °C 1013.5 hPa Calm     96% 0.0 mm 0 W/m2
18:23 9 °C 8.2 °C 1013.9 hPa Calm   1.6 km/h 95% 0.0 mm 0 W/m2
18:28 8.9 °C 8.1 °C 1013.5 hPa Calm   4.8 km/h 95% 0.0 mm 0 W/m2
18:33 8.9 °C 8.3 °C 1013.5 hPa Calm     96% 0.0 mm 0 W/m2
18:38 8.9 °C 8.3 °C 1013.5 hPa Calm   4.8 km/h 96% 0.0 mm 0 W/m2
18:43 8.8 °C 8 °C 1013.5 hPa Calm   1.6 km/h 95% 0.0 mm 0 W/m2
18:48 8.6 °C 7.8 °C 1013.5 hPa Calm     95% 0.0 mm 0 W/m2
18:53 8.4 °C 7.6 °C 1013.5 hPa Calm     95% 0.0 mm 0 W/m2
18:58 8.3 °C 7.5 °C 1013.9 hPa Calm   1.6 km/h 95% 0.0 mm 0 W/m2
19:03 8.2 °C 7.6 °C 1013.9 hPa Calm     96% 0.0 mm 0 W/m2
19:08 8.1 °C 7.5 °C 1013.9 hPa Calm     96% 0.0 mm 0 W/m2
19:13 8 °C 7.4 °C 1013.9 hPa Calm     96% 0.0 mm 0 W/m2
19:18 7.9 °C 7.3 °C 1013.9 hPa Calm     96% 0.0 mm 0 W/m2
19:23 7.8 °C 7.2 °C 1013.9 hPa Calm     96% 0.0 mm 0 W/m2
19:28 7.7 °C 6.9 °C 1013.9 hPa Calm     95% 0.0 mm 0 W/m2
19:33 7.5 °C 6.9 °C 1014.2 hPa Calm     96% 0.0 mm 0 W/m2
19:38 7.3 °C 6.6 °C 1014.2 hPa WNW 1.4 km/h 3.2 km/h 95% 0.0 mm 0 W/m2
19:43 7.2 °C 6.6 °C 1014.2 hPa Calm   3.2 km/h 96% 0.0 mm 0 W/m2
19:48 7.2 °C 6.6 °C 1014.6 hPa Calm     96% 0.0 mm 0 W/m2
19:53 7.2 °C 6.6 °C 1014.6 hPa Calm     96% 0.0 mm 0 W/m2
19:58 7.2 °C 6.6 °C 1014.6 hPa Calm     96% 0.0 mm 0 W/m2
20:03 7.2 °C 6.6 °C 1014.6 hPa Calm   1.6 km/h 96% 0.0 mm 0 W/m2
20:08 7.2 °C 6.6 °C 1014.6 hPa Calm   1.6 km/h 96% 0.0 mm 0 W/m2
20:13 7.2 °C 6.6 °C 1014.6 hPa Calm     96% 0.0 mm 0 W/m2
20:18 7.3 °C 6.7 °C 1014.6 hPa Calm   1.6 km/h 96% 0.0 mm 0 W/m2
20:23 7.3 °C 6.9 °C 1014.6 hPa Calm   3.2 km/h 97% 0.0 mm 0 W/m2
20:28 7.4 °C 7 °C 1014.6 hPa Calm     97% 0.0 mm 0 W/m2
20:33 7.5 °C 7.1 °C 1014.6 hPa Calm   3.2 km/h 97% 0.0 mm 0 W/m2
20:38 7.5 °C 7.1 °C 1014.6 hPa Calm     97% 0.0 mm 0 W/m2
20:43 7.5 °C 7.1 °C 1014.6 hPa Calm     97% 0.0 mm 0 W/m2
20:48 7.4 °C 7 °C 1014.6 hPa Calm     97% 0.0 mm 0 W/m2
20:53 7.3 °C 6.9 °C 1014.6 hPa Calm     97% 0.0 mm 0 W/m2
20:58 7.2 °C 6.6 °C 1014.6 hPa Calm     96% 0.0 mm 0 W/m2
21:03 7.1 °C 6.5 °C 1014.6 hPa Calm     96% 0.0 mm 0 W/m2
21:08 7 °C 6.6 °C 1014.6 hPa Calm     97% 0.0 mm 0 W/m2
21:13 6.9 °C 6.3 °C 1014.6 hPa Calm     96% 0.0 mm 0 W/m2
21:18 6.8 °C 6.2 °C 1014.6 hPa Calm     96% 0.0 mm 0 W/m2
21:23 6.7 °C 6.1 °C 1014.9 hPa Calm     96% 0.0 mm 0 W/m2
21:28 6.6 °C 6 °C 1014.6 hPa Calm     96% 0.0 mm 0 W/m2
21:33 6.4 °C 5.8 °C 1014.6 hPa Calm     96% 0.0 mm 0 W/m2
21:38 6.4 °C 6 °C 1014.6 hPa Calm     97% 0.0 mm 0 W/m2
21:43 6.5 °C 6.1 °C 1014.6 hPa Calm     97% 0.0 mm 0 W/m2
21:48 6.5 °C 6.1 °C 1014.6 hPa Calm     97% 0.0 mm 0 W/m2
21:53 6.4 °C 6 °C 1014.6 hPa Calm     97% 0.0 mm 0 W/m2
21:58 6.3 °C 5.9 °C 1014.6 hPa Calm     97% 0.0 mm 0 W/m2
22:03 6.3 °C 5.9 °C 1014.6 hPa Calm     97% 0.0 mm 0 W/m2
22:08 6.3 °C 5.9 °C 1014.6 hPa Calm   1.6 km/h 97% 0.0 mm 0 W/m2
22:13 6.3 °C 5.9 °C 1014.6 hPa Calm     97% 0.0 mm 0 W/m2
22:18 6.2 °C 5.8 °C 1014.6 hPa East 3.2 km/h 6.4 km/h 97% 0.2 mm 0 W/m2
22:23 6.3 °C 5.9 °C 1014.6 hPa Calm     97% 0.2 mm 0 W/m2
22:28 6.3 °C 5.9 °C 1014.6 hPa Calm   6.4 km/h 97% 0.2 mm 0 W/m2
22:33 6.3 °C 5.9 °C 1014.6 hPa Calm     97% 0.2 mm 0 W/m2
22:38 6.3 °C 5.9 °C 1014.6 hPa Calm   3.2 km/h 97% 0.2 mm 0 W/m2
22:43 6.2 °C 5.8 °C 1014.6 hPa Calm     97% 0.2 mm 0 W/m2
22:48 6.2 °C 5.8 °C 1014.6 hPa Calm     97% 0.2 mm 0 W/m2
22:53 6.2 °C 5.8 °C 1014.6 hPa Calm     97% 0.2 mm 0 W/m2
22:58 6.1 °C 5.7 °C 1014.6 hPa Calm     97% 0.2 mm 0 W/m2
23:03 6 °C 5.6 °C 1014.6 hPa Calm     97% 0.2 mm 0 W/m2
23:08 5.9 °C 5.5 °C 1014.6 hPa SW 1.4 km/h 3.2 km/h 97% 0.2 mm 0 W/m2
23:13 5.9 °C 5.5 °C 1014.6 hPa Calm   3.2 km/h 97% 0.2 mm 0 W/m2
23:18 6 °C 5.6 °C 1014.6 hPa WNW 1.4 km/h 1.6 km/h 97% 0.0 mm 0 W/m2
23:23 6.1 °C 5.7 °C 1014.6 hPa Calm     97% 0.0 mm 0 W/m2
23:28 5.9 °C 5.5 °C 1014.9 hPa Calm     97% 0.0 mm 0 W/m2
23:33 5.9 °C 5.5 °C 1014.6 hPa Calm     97% 0.0 mm 0 W/m2
23:38 5.8 °C 5.4 °C 1014.6 hPa WNW 3.2 km/h 3.2 km/h 97% 0.0 mm 0 W/m2
23:43 5.7 °C 5.3 °C 1014.9 hPa Calm     97% 0.0 mm 0 W/m2
23:48 5.7 °C 5.3 °C 1014.9 hPa Calm     97% 0.0 mm 0 W/m2
23:53 5.6 °C 5.2 °C 1014.9 hPa West 3.2 km/h 4.8 km/h 97% 0.0 mm 0 W/m2
23:58 5.7 °C 5.3 °C 1014.9 hPa WSW 3.2 km/h 4.8 km/h 97% 0.0 mm 0 W/m2
Juneau County Weather
Compliments of Weather Underground - 4 mb